< < Back
Terminal Aerodrome Forecast


Current Version              Previous Versions:   1  2  3  4  5  6  7  8  9  

Terminal Aerodrome Forecast

264
FTUS42 KFFC 021741
TAFATL
TAF
KATL 021741Z 0218/0324 22008G18KT P6SM FEW035 SCT045 SCT250
      TEMPO 0220/0223 22012G25KT 4SM TSRA BR BKN025CB
     FM030000 22009KT 4SM -TSRA BR BKN025CB
     FM030300 23008KT P6SM VCSH BKN040
     FM030600 25004KT 5SM BR SCT009 BKN015
     FM031200 24005KT P6SM BKN007 PROB30 0316/0320 -SHRA SCT007
      BKN015
     FM032100 30012KT P6SM BKN050=

Latest METAR

825
SAUS70 KWBC 030300 RRE
MTRATL
METAR KATL 030252Z 30012KT 10SM -RA FEW030 SCT050 BKN100 OVC200 21/16
A2995 RMK AO2 RAB32 SLP135 P0000 60000 T02060156 51013


USA.gov is the U.S. government's official web portal to all federal, state and local government web resources and services.